createdAt,value
2019-02-09T00:04:36.596Z,64.16
2019-02-09T00:09:40.616Z,63.89
2019-02-09T00:14:44.713Z,63.89
2019-02-09T00:19:48.823Z,63.63
2019-02-09T00:24:53.057Z,63.36
2019-02-09T00:29:57.394Z,63.12
2019-02-09T00:35:01.579Z,64.21
2019-02-09T00:40:07.400Z,64.21
2019-02-09T00:45:11.622Z,63.83
2019-02-09T00:50:16.451Z,64.20
2019-02-09T00:55:20.776Z,63.90
2019-02-09T01:00:25.798Z,64.94
2019-02-09T01:05:32.784Z,63.72
2019-02-09T01:10:36.989Z,64.25
2019-02-09T01:15:41.223Z,64.25
2019-02-09T01:20:45.390Z,64.65
2019-02-09T01:25:49.459Z,64.83
2019-02-09T01:30:53.509Z,64.83
2019-02-09T01:35:57.634Z,64.54
2019-02-09T01:41:01.832Z,65.19
2019-02-09T01:46:06.026Z,65.32
2019-02-09T01:51:10.203Z,65.43
2019-02-09T01:56:14.296Z,65.73
2019-02-09T02:01:18.387Z,65.88
2019-02-09T02:06:22.571Z,65.54
2019-02-09T02:11:26.669Z,65.54
2019-02-09T02:16:30.845Z,65.83
2019-02-09T02:21:35.017Z,65.83
2019-02-09T02:26:39.031Z,65.83
2019-02-09T02:31:43.150Z,66.02
2019-02-09T02:36:47.229Z,66.02
2019-02-09T02:41:51.350Z,65.18
2019-02-09T02:46:55.468Z,66.10
2019-02-09T02:51:59.479Z,65.86
2019-02-09T02:57:03.574Z,66.11
2019-02-09T03:02:07.781Z,66.11
2019-02-09T03:07:11.973Z,66.85
2019-02-09T03:12:15.976Z,66.80
2019-02-09T03:17:20.109Z,66.80
2019-02-09T03:22:24.125Z,66.45
2019-02-09T03:27:28.141Z,66.45
2019-02-09T03:32:32.230Z,66.73
2019-02-09T03:37:36.317Z,67.26
2019-02-09T03:42:40.493Z,67.42
2019-02-09T03:47:44.595Z,67.49
2019-02-09T03:52:48.799Z,67.39
2019-02-09T03:57:52.962Z,67.39
2019-02-09T04:02:57.377Z,67.45
2019-02-09T04:08:01.599Z,67.48
2019-02-09T04:13:05.718Z,67.84
2019-02-09T04:18:09.756Z,67.52
2019-02-09T04:23:13.779Z,67.77
2019-02-09T04:28:17.876Z,68.00
2019-02-09T04:33:21.914Z,68.10
2019-02-09T04:38:25.932Z,67.92
2019-02-09T04:43:29.966Z,67.57
2019-02-09T04:48:34.070Z,67.87
2019-02-09T04:53:38.105Z,68.04
2019-02-09T04:58:42.203Z,68.05
2019-02-09T05:03:46.357Z,67.82
2019-02-09T05:08:50.385Z,67.91
2019-02-09T05:13:54.487Z,67.29
2019-02-09T05:18:58.630Z,67.31
2019-02-09T05:24:02.674Z,67.20
2019-02-09T05:29:06.861Z,67.05
2019-02-09T05:34:10.917Z,66.43
2019-02-09T05:39:15.103Z,67.12
2019-02-09T05:44:19.187Z,66.91
2019-02-09T05:49:23.256Z,66.84
2019-02-09T05:54:27.318Z,66.85
2019-02-09T05:59:31.411Z,66.85
2019-02-09T06:04:35.593Z,66.96
2019-02-09T06:09:39.762Z,67.03
2019-02-09T06:14:43.943Z,67.32
2019-02-09T06:19:47.970Z,67.32
2019-02-09T06:24:52.081Z,66.87
2019-02-09T06:29:56.100Z,66.88
2019-02-09T06:35:00.316Z,67.10
2019-02-09T06:40:05.162Z,67.49
2019-02-09T06:45:11.606Z,67.49
2019-02-09T06:50:27.604Z,67.02
2019-02-09T06:55:31.633Z,67.40
2019-02-09T07:00:35.637Z,67.15
2019-02-09T07:05:39.747Z,67.29
2019-02-09T07:10:43.859Z,67.19
2019-02-09T07:15:48.024Z,67.29
2019-02-09T07:20:52.174Z,67.28
2019-02-09T07:25:56.356Z,67.28
2019-02-09T07:31:00.513Z,67.33
2019-02-09T07:36:04.868Z,67.37
2019-02-09T07:41:08.887Z,67.22
2019-02-09T07:46:13.018Z,67.48
2019-02-09T07:51:17.120Z,67.71
2019-02-09T07:56:21.141Z,67.71
2019-02-09T08:01:25.229Z,67.65
2019-02-09T08:06:29.261Z,63.84
2019-02-09T08:11:33.362Z,63.71
2019-02-09T08:16:37.623Z,65.41
2019-02-09T08:21:42.145Z,63.44
2019-02-09T08:26:46.366Z,61.98
2019-02-09T08:31:50.469Z,61.37
2019-02-09T08:36:54.756Z,61.90
2019-02-09T08:41:58.925Z,61.90
2019-02-09T08:47:02.945Z,61.68
2019-02-09T08:52:07.136Z,62.69
2019-02-09T08:57:11.230Z,62.69
2019-02-09T09:02:20.431Z,63.01
2019-02-09T09:07:21.340Z,63.71
2019-02-09T09:12:25.567Z,64.02
2019-02-09T09:17:29.674Z,63.83
2019-02-09T09:22:33.832Z,63.37
2019-02-09T09:27:38.022Z,63.85
2019-02-09T09:32:42.248Z,63.83
2019-02-09T09:37:46.614Z,63.84
2019-02-09T09:42:50.912Z,63.60
2019-02-09T09:47:55.172Z,63.72
2019-02-09T09:52:59.443Z,63.72
2019-02-09T09:58:03.778Z,64.00
2019-02-09T10:03:08.267Z,64.00
2019-02-09T10:08:12.481Z,63.96
2019-02-09T10:13:16.659Z,64.28
2019-02-09T10:18:20.896Z,63.28
2019-02-09T10:23:25.013Z,63.28
2019-02-09T10:28:29.283Z,62.48
2019-02-09T10:33:33.376Z,61.73
2019-02-09T10:38:38.026Z,63.39
2019-02-09T10:43:42.366Z,63.60
2019-02-09T10:48:46.489Z,63.79
2019-02-09T10:53:50.550Z,64.01
2019-02-09T10:58:54.669Z,64.02
2019-02-09T11:03:58.873Z,63.73
2019-02-09T11:09:04.601Z,64.07
2019-02-09T11:14:08.920Z,64.07
2019-02-09T11:19:13.064Z,61.25
2019-02-09T11:24:17.220Z,61.25
2019-02-09T11:29:21.347Z,60.64
2019-02-09T11:34:25.581Z,60.81
2019-02-09T11:39:30.698Z,62.98
2019-02-09T11:44:41.031Z,62.56
2019-02-09T11:49:40.877Z,61.13
2019-02-09T11:54:45.241Z,63.50
2019-02-09T11:59:49.344Z,62.20
2019-02-09T12:04:54.001Z,61.79
2019-02-09T12:09:58.222Z,61.46
2019-02-09T12:15:02.602Z,60.33
2019-02-09T12:20:08.900Z,61.65
2019-02-09T12:25:16.115Z,62.10
2019-02-09T12:30:22.713Z,61.82
2019-02-09T12:35:27.981Z,61.65
2019-02-09T12:40:33.048Z,62.21
2019-02-09T12:45:37.711Z,62.11
2019-02-09T12:50:41.987Z,62.11
2019-02-09T12:55:46.139Z,62.43
2019-02-09T13:00:50.368Z,62.43
2019-02-09T13:05:54.787Z,61.23
2019-02-09T13:10:59.187Z,63.51
2019-02-09T13:16:03.578Z,63.51
2019-02-09T13:21:08.050Z,63.82
2019-02-09T13:26:12.339Z,63.49
2019-02-09T13:31:16.713Z,63.49
2019-02-09T13:36:20.883Z,63.18
2019-02-09T13:41:25.047Z,63.18
2019-02-09T13:46:29.259Z,62.93
2019-02-09T13:51:33.383Z,62.82
2019-02-09T13:56:37.558Z,62.82
2019-02-09T14:01:41.803Z,63.04
2019-02-09T14:06:45.931Z,62.20
2019-02-09T14:11:50.231Z,62.73
2019-02-09T14:16:54.700Z,63.47
2019-02-09T14:21:59.250Z,63.95
2019-02-09T14:27:03.726Z,64.04
2019-02-09T14:32:08.157Z,64.17
2019-02-09T14:37:12.586Z,63.45
2019-02-09T14:42:16.999Z,63.45
2019-02-09T14:47:21.282Z,63.32
2019-02-09T14:52:25.536Z,63.34
2019-02-09T14:57:29.826Z,63.48
2019-02-09T15:02:34.108Z,63.48
2019-02-09T15:07:38.442Z,63.10
2019-02-09T15:12:42.853Z,63.67
2019-02-09T15:17:47.412Z,63.89
2019-02-09T15:22:52.010Z,63.41
2019-02-09T15:27:56.391Z,63.41
2019-02-09T15:33:00.648Z,64.61
2019-02-09T15:38:05.339Z,63.17
2019-02-09T15:43:09.518Z,63.17
2019-02-09T15:48:13.678Z,64.35
2019-02-09T15:53:17.774Z,64.35
2019-02-09T15:58:22.193Z,63.82
2019-02-09T16:03:26.474Z,64.51
2019-02-09T16:08:30.660Z,62.73
2019-02-09T16:13:34.850Z,64.38
2019-02-09T16:18:39.539Z,64.38
2019-02-09T16:23:43.687Z,62.55
2019-02-09T16:28:47.948Z,63.30
2019-02-09T16:33:52.496Z,63.15
2019-02-09T16:38:58.801Z,64.21
2019-02-09T16:44:03.728Z,63.13
2019-02-09T16:49:08.061Z,62.89
2019-02-09T16:54:12.882Z,62.89
2019-02-09T16:59:17.183Z,62.64
2019-02-09T17:04:22.079Z,63.53
2019-02-09T17:09:26.353Z,63.08
2019-02-09T17:14:30.942Z,60.63
2019-02-09T17:19:35.404Z,60.72
2019-02-09T17:24:41.828Z,60.24
2019-02-09T17:29:48.727Z,60.05
2019-02-09T17:34:56.110Z,60.14
2019-02-09T17:40:00.918Z,59.43
2019-02-09T17:45:07.565Z,58.26
2019-02-09T17:50:27.072Z,59.48
2019-02-09T17:55:43.918Z,58.99
2019-02-09T18:00:52.642Z,59.63
2019-02-09T18:05:57.550Z,59.69
2019-02-09T18:11:02.074Z,59.46
2019-02-09T18:16:06.519Z,59.46
2019-02-09T18:21:10.765Z,59.18
2019-02-09T18:26:23.957Z,58.97
2019-02-09T18:37:05.443Z,59.13
2019-02-09T18:42:11.888Z,58.83
2019-02-09T18:47:16.547Z,58.82
2019-02-09T18:52:23.084Z,59.19
2019-02-09T18:57:28.517Z,59.44
2019-02-09T19:02:38.510Z,60.17
2019-02-09T19:13:00.752Z,60.07
2019-02-09T19:18:14.574Z,59.39
2019-02-09T19:28:51.533Z,58.80
2019-02-09T19:40:02.943Z,58.84
2019-02-09T19:45:10.503Z,59.34
2019-02-09T19:50:15.198Z,59.44
2019-02-09T19:56:07.976Z,59.58
2019-02-09T20:01:58.759Z,59.58
2019-02-09T20:07:07.663Z,58.93
2019-02-09T20:12:13.347Z,58.98
2019-02-09T20:17:54.852Z,59.08
2019-02-09T20:28:35.826Z,58.01
2019-02-09T20:33:40.084Z,59.55
2019-02-09T20:38:44.338Z,60.21
2019-02-09T20:43:48.614Z,60.13
2019-02-09T20:48:52.782Z,60.13
2019-02-09T20:53:57.090Z,60.99
2019-02-09T20:59:01.320Z,61.08
2019-02-09T21:04:05.685Z,61.25
2019-02-09T21:09:10.045Z,61.33
2019-02-09T21:14:14.461Z,61.33
2019-02-09T21:19:18.859Z,62.38
2019-02-09T21:24:23.188Z,62.10
2019-02-09T21:29:27.612Z,62.10
2019-02-09T21:34:31.762Z,62.23
2019-02-09T21:39:36.102Z,62.06
2019-02-09T21:44:40.330Z,61.95
2019-02-09T21:49:44.668Z,62.49
2019-02-09T21:54:49.018Z,62.30
2019-02-09T21:59:53.343Z,62.65
2019-02-09T22:04:57.525Z,62.88
2019-02-09T22:10:01.736Z,62.95
2019-02-09T22:15:07.542Z,62.95
2019-02-09T22:20:13.069Z,62.88
2019-02-09T22:25:19.134Z,62.92
2019-02-09T22:30:27.662Z,62.17
2019-02-09T22:35:31.936Z,62.13
2019-02-09T22:40:37.026Z,62.13
2019-02-09T22:45:41.512Z,62.59
2019-02-09T22:50:46.901Z,63.10
2019-02-09T22:55:51.266Z,63.10
2019-02-09T23:01:28.499Z,62.08
2019-02-09T23:06:41.240Z,62.35
2019-02-09T23:11:45.663Z,63.07
2019-02-09T23:16:50.135Z,62.98
2019-02-09T23:21:56.682Z,63.22
2019-02-09T23:27:01.020Z,62.57
2019-02-09T23:32:05.426Z,61.23
2019-02-09T23:37:09.622Z,61.15
2019-02-09T23:42:14.122Z,61.90
2019-02-09T23:47:18.542Z,62.99
2019-02-09T23:52:22.982Z,62.79
2019-02-09T23:57:27.381Z,62.03
